sensor_id;sensor_type;location;lat;lon;timestamp;P1;durP1;ratioP1;P2;durP2;ratioP2
19675;SDS011;39539;52.202;9.876;2022-07-09T00:01:37;3.10;;;2.90;;
19675;SDS011;39539;52.202;9.876;2022-07-09T00:04:02;3.17;;;2.88;;
19675;SDS011;39539;52.202;9.876;2022-07-09T00:06:27;3.20;;;2.78;;
19675;SDS011;39539;52.202;9.876;2022-07-09T00:08:53;3.10;;;2.90;;
19675;SDS011;39539;52.202;9.876;2022-07-09T00:11:19;2.78;;;2.58;;
19675;SDS011;39539;52.202;9.876;2022-07-09T00:13:44;3.10;;;2.88;;
19675;SDS011;39539;52.202;9.876;2022-07-09T00:16:10;3.03;;;2.83;;
19675;SDS011;39539;52.202;9.876;2022-07-09T00:18:35;3.13;;;2.78;;
19675;SDS011;39539;52.202;9.876;2022-07-09T00:21:00;3.22;;;2.95;;
19675;SDS011;39539;52.202;9.876;2022-07-09T00:23:26;3.40;;;3.10;;
19675;SDS011;39539;52.202;9.876;2022-07-09T00:25:51;3.08;;;2.90;;
19675;SDS011;39539;52.202;9.876;2022-07-09T00:28:17;3.00;;;2.80;;
19675;SDS011;39539;52.202;9.876;2022-07-09T00:30:43;3.10;;;2.80;;
19675;SDS011;39539;52.202;9.876;2022-07-09T00:33:08;3.05;;;2.72;;
19675;SDS011;39539;52.202;9.876;2022-07-09T00:35:33;3.20;;;3.00;;
19675;SDS011;39539;52.202;9.876;2022-07-09T00:37:59;3.50;;;3.17;;
19675;SDS011;39539;52.202;9.876;2022-07-09T00:40:24;3.33;;;3.00;;
19675;SDS011;39539;52.202;9.876;2022-07-09T00:42:50;4.97;;;3.50;;
19675;SDS011;39539;52.202;9.876;2022-07-09T00:45:15;3.15;;;2.97;;
19675;SDS011;39539;52.202;9.876;2022-07-09T00:47:42;3.45;;;3.17;;
19675;SDS011;39539;52.202;9.876;2022-07-09T00:50:09;5.85;;;3.28;;
19675;SDS011;39539;52.202;9.876;2022-07-09T00:52:35;3.08;;;2.88;;
19675;SDS011;39539;52.202;9.876;2022-07-09T00:55:03;3.05;;;2.85;;
19675;SDS011;39539;52.202;9.876;2022-07-09T00:57:31;3.03;;;2.80;;
19675;SDS011;39539;52.202;9.876;2022-07-09T00:59:57;3.38;;;3.10;;
19675;SDS011;39539;52.202;9.876;2022-07-09T01:02:23;3.03;;;2.83;;
19675;SDS011;39539;52.202;9.876;2022-07-09T01:04:50;3.28;;;3.03;;
19675;SDS011;39539;52.202;9.876;2022-07-09T01:07:16;3.38;;;3.08;;
19675;SDS011;39539;52.202;9.876;2022-07-09T01:09:43;3.75;;;3.35;;
19675;SDS011;39539;52.202;9.876;2022-07-09T01:12:09;3.22;;;3.03;;
19675;SDS011;39539;52.202;9.876;2022-07-09T01:14:34;3.53;;;3.28;;
19675;SDS011;39539;52.202;9.876;2022-07-09T01:17:01;3.38;;;3.10;;
19675;SDS011;39539;52.202;9.876;2022-07-09T01:19:28;3.28;;;3.05;;
19675;SDS011;39539;52.202;9.876;2022-07-09T01:21:54;3.63;;;3.28;;
19675;SDS011;39539;52.202;9.876;2022-07-09T01:24:20;2.83;;;2.63;;
19675;SDS011;39539;52.202;9.876;2022-07-09T01:26:49;3.40;;;3.10;;
19675;SDS011;39539;52.202;9.876;2022-07-09T01:29:17;3.28;;;2.97;;
19675;SDS011;39539;52.202;9.876;2022-07-09T01:31:42;3.47;;;3.17;;
19675;SDS011;39539;52.202;9.876;2022-07-09T01:34:07;3.63;;;3.30;;
19675;SDS011;39539;52.202;9.876;2022-07-09T01:36:33;2.88;;;2.63;;
19675;SDS011;39539;52.202;9.876;2022-07-09T01:38:59;3.40;;;3.10;;
19675;SDS011;39539;52.202;9.876;2022-07-09T01:41:24;3.60;;;3.30;;
19675;SDS011;39539;52.202;9.876;2022-07-09T01:43:50;3.38;;;3.08;;
19675;SDS011;39539;52.202;9.876;2022-07-09T01:46:15;3.72;;;3.42;;
19675;SDS011;39539;52.202;9.876;2022-07-09T01:48:41;3.60;;;3.30;;
19675;SDS011;39539;52.202;9.876;2022-07-09T01:51:07;4.30;;;3.53;;
19675;SDS011;39539;52.202;9.876;2022-07-09T01:53:34;3.83;;;3.58;;
19675;SDS011;39539;52.202;9.876;2022-07-09T01:56:03;4.05;;;3.72;;
19675;SDS011;39539;52.202;9.876;2022-07-09T01:58:30;3.60;;;3.30;;
19675;SDS011;39539;52.202;9.876;2022-07-09T02:00:55;3.90;;;3.60;;
19675;SDS011;39539;52.202;9.876;2022-07-09T02:03:21;5.28;;;3.50;;
19675;SDS011;39539;52.202;9.876;2022-07-09T02:05:47;3.90;;;3.60;;
19675;SDS011;39539;52.202;9.876;2022-07-09T02:08:13;4.90;;;3.70;;
19675;SDS011;39539;52.202;9.876;2022-07-09T02:10:39;4.30;;;3.90;;
19675;SDS011;39539;52.202;9.876;2022-07-09T02:13:04;6.30;;;4.10;;
19675;SDS011;39539;52.202;9.876;2022-07-09T02:15:30;4.30;;;3.47;;
19675;SDS011;39539;52.202;9.876;2022-07-09T02:17:55;5.75;;;3.90;;
19675;SDS011;39539;52.202;9.876;2022-07-09T02:20:21;4.15;;;3.80;;
19675;SDS011;39539;52.202;9.876;2022-07-09T02:22:46;4.85;;;4.05;;
19675;SDS011;39539;52.202;9.876;2022-07-09T02:25:11;5.53;;;3.65;;
19675;SDS011;39539;52.202;9.876;2022-07-09T02:27:37;5.35;;;3.95;;
19675;SDS011;39539;52.202;9.876;2022-07-09T02:30:02;5.70;;;3.72;;
19675;SDS011;39539;52.202;9.876;2022-07-09T02:32:28;4.45;;;3.58;;
19675;SDS011;39539;52.202;9.876;2022-07-09T02:34:53;6.25;;;3.97;;
19675;SDS011;39539;52.202;9.876;2022-07-09T02:37:19;5.45;;;4.00;;
19675;SDS011;39539;52.202;9.876;2022-07-09T02:39:45;7.20;;;4.22;;
19675;SDS011;39539;52.202;9.876;2022-07-09T02:42:10;4.60;;;4.20;;
19675;SDS011;39539;52.202;9.876;2022-07-09T02:44:35;4.88;;;4.43;;
19675;SDS011;39539;52.202;9.876;2022-07-09T02:47:01;5.57;;;3.95;;
19675;SDS011;39539;52.202;9.876;2022-07-09T02:49:26;4.65;;;4.25;;
19675;SDS011;39539;52.202;9.876;2022-07-09T02:51:51;5.53;;;4.13;;
19675;SDS011;39539;52.202;9.876;2022-07-09T02:54:17;4.13;;;3.78;;
19675;SDS011;39539;52.202;9.876;2022-07-09T02:56:42;4.15;;;3.78;;
19675;SDS011;39539;52.202;9.876;2022-07-09T02:59:08;5.38;;;4.20;;
19675;SDS011;39539;52.202;9.876;2022-07-09T03:01:34;6.78;;;4.18;;
19675;SDS011;39539;52.202;9.876;2022-07-09T03:03:59;7.95;;;4.15;;
19675;SDS011;39539;52.202;9.876;2022-07-09T03:06:25;8.93;;;4.85;;
19675;SDS011;39539;52.202;9.876;2022-07-09T03:08:51;11.30;;;4.72;;
19675;SDS011;39539;52.202;9.876;2022-07-09T03:11:16;8.10;;;4.88;;
19675;SDS011;39539;52.202;9.876;2022-07-09T03:13:42;9.65;;;4.75;;
19675;SDS011;39539;52.202;9.876;2022-07-09T03:16:07;6.18;;;4.68;;
19675;SDS011;39539;52.202;9.876;2022-07-09T03:18:32;10.43;;;5.15;;
19675;SDS011;39539;52.202;9.876;2022-07-09T03:20:58;6.07;;;5.05;;
19675;SDS011;39539;52.202;9.876;2022-07-09T03:23:25;8.13;;;5.22;;
19675;SDS011;39539;52.202;9.876;2022-07-09T03:25:50;9.57;;;5.00;;
19675;SDS011;39539;52.202;9.876;2022-07-09T03:28:16;9.05;;;5.68;;
19675;SDS011;39539;52.202;9.876;2022-07-09T03:30:41;8.57;;;5.40;;
19675;SDS011;39539;52.202;9.876;2022-07-09T03:33:07;6.90;;;5.10;;
19675;SDS011;39539;52.202;9.876;2022-07-09T03:35:32;7.97;;;5.43;;
19675;SDS011;39539;52.202;9.876;2022-07-09T03:37:57;7.20;;;5.00;;
19675;SDS011;39539;52.202;9.876;2022-07-09T03:40:23;13.60;;;5.63;;
19675;SDS011;39539;52.202;9.876;2022-07-09T03:42:48;19.13;;;5.40;;
19675;SDS011;39539;52.202;9.876;2022-07-09T03:45:14;15.50;;;5.20;;
19675;SDS011;39539;52.202;9.876;2022-07-09T03:47:40;7.75;;;5.13;;
19675;SDS011;39539;52.202;9.876;2022-07-09T03:50:05;8.15;;;4.50;;
19675;SDS011;39539;52.202;9.876;2022-07-09T03:52:31;9.50;;;4.60;;
19675;SDS011;39539;52.202;9.876;2022-07-09T03:54:57;10.40;;;5.13;;
19675;SDS011;39539;52.202;9.876;2022-07-09T03:57:22;7.53;;;5.13;;
19675;SDS011;39539;52.202;9.876;2022-07-09T03:59:47;11.05;;;5.00;;
19675;SDS011;39539;52.202;9.876;2022-07-09T04:02:13;8.55;;;5.05;;
19675;SDS011;39539;52.202;9.876;2022-07-09T04:04:38;9.00;;;5.45;;
19675;SDS011;39539;52.202;9.876;2022-07-09T04:07:03;6.05;;;4.82;;
19675;SDS011;39539;52.202;9.876;2022-07-09T04:09:29;5.95;;;4.75;;
19675;SDS011;39539;52.202;9.876;2022-07-09T04:11:57;6.78;;;4.80;;
19675;SDS011;39539;52.202;9.876;2022-07-09T04:14:22;6.35;;;4.40;;
19675;SDS011;39539;52.202;9.876;2022-07-09T04:16:47;4.95;;;4.50;;
19675;SDS011;39539;52.202;9.876;2022-07-09T04:19:13;6.90;;;4.82;;
19675;SDS011;39539;52.202;9.876;2022-07-09T04:21:38;5.85;;;4.88;;
19675;SDS011;39539;52.202;9.876;2022-07-09T04:24:04;5.75;;;4.13;;
19675;SDS011;39539;52.202;9.876;2022-07-09T04:26:29;7.05;;;4.50;;
19675;SDS011;39539;52.202;9.876;2022-07-09T04:28:55;6.18;;;4.47;;
19675;SDS011;39539;52.202;9.876;2022-07-09T04:31:20;6.47;;;4.85;;
19675;SDS011;39539;52.202;9.876;2022-07-09T04:33:46;6.18;;;4.60;;
19675;SDS011;39539;52.202;9.876;2022-07-09T04:36:12;5.82;;;4.32;;
19675;SDS011;39539;52.202;9.876;2022-07-09T04:38:37;5.60;;;4.97;;
19675;SDS011;39539;52.202;9.876;2022-07-09T04:41:03;8.05;;;5.07;;
19675;SDS011;39539;52.202;9.876;2022-07-09T04:43:29;5.57;;;4.88;;
19675;SDS011;39539;52.202;9.876;2022-07-09T04:45:55;8.98;;;5.05;;
19675;SDS011;39539;52.202;9.876;2022-07-09T04:48:21;5.35;;;4.55;;
19675;SDS011;39539;52.202;9.876;2022-07-09T04:50:47;7.60;;;4.57;;
19675;SDS011;39539;52.202;9.876;2022-07-09T04:53:12;6.53;;;4.75;;
19675;SDS011;39539;52.202;9.876;2022-07-09T04:55:38;7.38;;;4.65;;
19675;SDS011;39539;52.202;9.876;2022-07-09T04:58:03;6.00;;;4.90;;
19675;SDS011;39539;52.202;9.876;2022-07-09T05:00:29;7.43;;;4.88;;
19675;SDS011;39539;52.202;9.876;2022-07-09T05:02:54;5.97;;;4.70;;
19675;SDS011;39539;52.202;9.876;2022-07-09T05:05:19;6.78;;;5.40;;
19675;SDS011;39539;52.202;9.876;2022-07-09T05:07:48;5.85;;;4.95;;
19675;SDS011;39539;52.202;9.876;2022-07-09T05:10:13;5.68;;;5.00;;
19675;SDS011;39539;52.202;9.876;2022-07-09T05:12:39;5.32;;;4.82;;
19675;SDS011;39539;52.202;9.876;2022-07-09T05:15:05;5.65;;;5.15;;
19675;SDS011;39539;52.202;9.876;2022-07-09T05:17:34;6.80;;;5.13;;
19675;SDS011;39539;52.202;9.876;2022-07-09T05:20:02;7.78;;;5.18;;
19675;SDS011;39539;52.202;9.876;2022-07-09T05:22:33;6.82;;;5.97;;
19675;SDS011;39539;52.202;9.876;2022-07-09T05:24:59;6.32;;;5.72;;
19675;SDS011;39539;52.202;9.876;2022-07-09T05:27:26;6.22;;;5.60;;
19675;SDS011;39539;52.202;9.876;2022-07-09T05:29:52;5.85;;;5.32;;
19675;SDS011;39539;52.202;9.876;2022-07-09T05:32:18;5.97;;;5.07;;
19675;SDS011;39539;52.202;9.876;2022-07-09T05:34:43;6.43;;;5.30;;
19675;SDS011;39539;52.202;9.876;2022-07-09T05:37:09;5.63;;;5.20;;
19675;SDS011;39539;52.202;9.876;2022-07-09T05:39:35;7.70;;;5.50;;
19675;SDS011;39539;52.202;9.876;2022-07-09T05:42:01;5.93;;;5.43;;
19675;SDS011;39539;52.202;9.876;2022-07-09T05:44:26;5.38;;;4.88;;
19675;SDS011;39539;52.202;9.876;2022-07-09T05:46:51;6.75;;;4.90;;
19675;SDS011;39539;52.202;9.876;2022-07-09T05:49:17;4.80;;;4.40;;
19675;SDS011;39539;52.202;9.876;2022-07-09T05:51:42;5.32;;;4.88;;
19675;SDS011;39539;52.202;9.876;2022-07-09T05:54:08;4.60;;;4.13;;
19675;SDS011;39539;52.202;9.876;2022-07-09T05:56:33;7.88;;;4.45;;
19675;SDS011;39539;52.202;9.876;2022-07-09T05:58:59;6.05;;;4.10;;
19675;SDS011;39539;52.202;9.876;2022-07-09T06:01:25;5.97;;;4.20;;
19675;SDS011;39539;52.202;9.876;2022-07-09T06:03:50;4.93;;;4.05;;
19675;SDS011;39539;52.202;9.876;2022-07-09T06:06:16;4.85;;;4.15;;
19675;SDS011;39539;52.202;9.876;2022-07-09T06:08:41;5.97;;;3.80;;
19675;SDS011;39539;52.202;9.876;2022-07-09T06:11:08;6.97;;;4.35;;
19675;SDS011;39539;52.202;9.876;2022-07-09T06:13:33;4.68;;;4.35;;
19675;SDS011;39539;52.202;9.876;2022-07-09T06:15:58;3.88;;;3.58;;
19675;SDS011;39539;52.202;9.876;2022-07-09T06:18:24;3.85;;;3.22;;
19675;SDS011;39539;52.202;9.876;2022-07-09T06:20:49;3.28;;;3.03;;
19675;SDS011;39539;52.202;9.876;2022-07-09T06:23:14;3.28;;;2.97;;
19675;SDS011;39539;52.202;9.876;2022-07-09T06:25:40;4.07;;;3.20;;
19675;SDS011;39539;52.202;9.876;2022-07-09T06:28:05;2.70;;;2.50;;
19675;SDS011;39539;52.202;9.876;2022-07-09T06:30:31;3.08;;;2.30;;
19675;SDS011;39539;52.202;9.876;2022-07-09T06:32:59;2.88;;;2.30;;
19675;SDS011;39539;52.202;9.876;2022-07-09T06:35:25;2.20;;;2.00;;
19675;SDS011;39539;52.202;9.876;2022-07-09T06:37:50;4.35;;;2.00;;
19675;SDS011;39539;52.202;9.876;2022-07-09T06:40:15;1.75;;;1.33;;
19675;SDS011;39539;52.202;9.876;2022-07-09T06:42:41;1.90;;;1.27;;
19675;SDS011;39539;52.202;9.876;2022-07-09T06:45:07;1.90;;;1.20;;
19675;SDS011;39539;52.202;9.876;2022-07-09T06:47:33;1.23;;;1.10;;
19675;SDS011;39539;52.202;9.876;2022-07-09T06:49:58;1.23;;;0.90;;
19675;SDS011;39539;52.202;9.876;2022-07-09T06:52:24;1.02;;;0.98;;
19675;SDS011;39539;52.202;9.876;2022-07-09T06:54:49;2.00;;;1.05;;
19675;SDS011;39539;52.202;9.876;2022-07-09T06:57:15;1.38;;;1.00;;
19675;SDS011;39539;52.202;9.876;2022-07-09T06:59:43;1.98;;;0.90;;
19675;SDS011;39539;52.202;9.876;2022-07-09T07:02:10;2.20;;;0.90;;
19675;SDS011;39539;52.202;9.876;2022-07-09T07:04:36;1.70;;;0.65;;
19675;SDS011;39539;52.202;9.876;2022-07-09T07:07:01;1.77;;;1.00;;
19675;SDS011;39539;52.202;9.876;2022-07-09T07:09:27;1.95;;;0.60;;
19675;SDS011;39539;52.202;9.876;2022-07-09T07:11:53;1.60;;;0.98;;
19675;SDS011;39539;52.202;9.876;2022-07-09T07:14:19;0.77;;;0.77;;
19675;SDS011;39539;52.202;9.876;2022-07-09T07:16:44;0.90;;;0.73;;
19675;SDS011;39539;52.202;9.876;2022-07-09T07:19:10;1.45;;;0.90;;
19675;SDS011;39539;52.202;9.876;2022-07-09T07:21:36;1.63;;;0.95;;
19675;SDS011;39539;52.202;9.876;2022-07-09T07:24:02;1.77;;;0.85;;
19675;SDS011;39539;52.202;9.876;2022-07-09T07:26:28;2.33;;;0.70;;
19675;SDS011;39539;52.202;9.876;2022-07-09T07:28:53;0.55;;;0.50;;
19675;SDS011;39539;52.202;9.876;2022-07-09T07:31:19;1.30;;;0.70;;
19675;SDS011;39539;52.202;9.876;2022-07-09T07:33:44;1.08;;;0.50;;
19675;SDS011;39539;52.202;9.876;2022-07-09T07:36:10;1.00;;;0.60;;
19675;SDS011;39539;52.202;9.876;2022-07-09T07:38:35;0.98;;;0.70;;
19675;SDS011;39539;52.202;9.876;2022-07-09T07:41:01;2.20;;;0.90;;
19675;SDS011;39539;52.202;9.876;2022-07-09T07:43:26;1.42;;;0.80;;
19675;SDS011;39539;52.202;9.876;2022-07-09T07:45:52;1.10;;;0.90;;
19675;SDS011;39539;52.202;9.876;2022-07-09T07:48:17;1.65;;;1.05;;
19675;SDS011;39539;52.202;9.876;2022-07-09T07:50:44;1.23;;;1.02;;
19675;SDS011;39539;52.202;9.876;2022-07-09T07:53:09;1.77;;;1.25;;
19675;SDS011;39539;52.202;9.876;2022-07-09T07:55:35;1.83;;;1.38;;
19675;SDS011;39539;52.202;9.876;2022-07-09T07:58:02;2.60;;;1.55;;
19675;SDS011;39539;52.202;9.876;2022-07-09T08:00:27;2.03;;;1.20;;
19675;SDS011;39539;52.202;9.876;2022-07-09T08:02:52;1.45;;;1.23;;
19675;SDS011;39539;52.202;9.876;2022-07-09T08:05:18;1.40;;;1.30;;
19675;SDS011;39539;52.202;9.876;2022-07-09T08:07:43;1.25;;;1.15;;
19675;SDS011;39539;52.202;9.876;2022-07-09T08:10:10;2.03;;;1.20;;
19675;SDS011;39539;52.202;9.876;2022-07-09T08:12:35;2.38;;;1.20;;
19675;SDS011;39539;52.202;9.876;2022-07-09T08:15:01;1.40;;;1.17;;
19675;SDS011;39539;52.202;9.876;2022-07-09T08:17:26;2.00;;;1.30;;
19675;SDS011;39539;52.202;9.876;2022-07-09T08:19:52;2.25;;;1.27;;
19675;SDS011;39539;52.202;9.876;2022-07-09T08:22:17;1.67;;;1.30;;
19675;SDS011;39539;52.202;9.876;2022-07-09T08:24:43;1.85;;;1.33;;
19675;SDS011;39539;52.202;9.876;2022-07-09T08:27:08;1.67;;;1.58;;
19675;SDS011;39539;52.202;9.876;2022-07-09T08:29:34;1.67;;;1.40;;
19675;SDS011;39539;52.202;9.876;2022-07-09T08:31:59;1.95;;;1.20;;
19675;SDS011;39539;52.202;9.876;2022-07-09T08:34:25;1.10;;;1.10;;
19675;SDS011;39539;52.202;9.876;2022-07-09T08:36:50;1.98;;;1.58;;
19675;SDS011;39539;52.202;9.876;2022-07-09T08:39:16;1.48;;;1.38;;
19675;SDS011;39539;52.202;9.876;2022-07-09T08:41:42;3.55;;;1.52;;
19675;SDS011;39539;52.202;9.876;2022-07-09T08:44:10;1.63;;;1.45;;
19675;SDS011;39539;52.202;9.876;2022-07-09T08:46:36;3.45;;;1.63;;
19675;SDS011;39539;52.202;9.876;2022-07-09T08:49:01;1.67;;;1.58;;
19675;SDS011;39539;52.202;9.876;2022-07-09T08:51:28;2.13;;;1.33;;
19675;SDS011;39539;52.202;9.876;2022-07-09T08:53:55;1.70;;;1.60;;
19675;SDS011;39539;52.202;9.876;2022-07-09T08:56:21;3.35;;;1.50;;
19675;SDS011;39539;52.202;9.876;2022-07-09T08:58:46;1.70;;;1.60;;
19675;SDS011;39539;52.202;9.876;2022-07-09T09:01:12;1.52;;;1.38;;
19675;SDS011;39539;52.202;9.876;2022-07-09T09:03:39;1.42;;;1.30;;
19675;SDS011;39539;52.202;9.876;2022-07-09T09:06:06;1.35;;;1.25;;
19675;SDS011;39539;52.202;9.876;2022-07-09T09:08:43;5.47;;;1.73;;
19675;SDS011;39539;52.202;9.876;2022-07-09T09:13:40;2.28;;;1.50;;
19675;SDS011;39539;52.202;9.876;2022-07-09T09:16:07;1.67;;;1.52;;
19675;SDS011;39539;52.202;9.876;2022-07-09T09:18:36;2.90;;;1.65;;
19675;SDS011;39539;52.202;9.876;2022-07-09T09:21:05;2.22;;;1.90;;
19675;SDS011;39539;52.202;9.876;2022-07-09T09:23:50;3.35;;;1.80;;
19675;SDS011;39539;52.202;9.876;2022-07-09T09:26:18;2.75;;;1.83;;
19675;SDS011;39539;52.202;9.876;2022-07-09T09:28:54;2.55;;;2.00;;
19675;SDS011;39539;52.202;9.876;2022-07-09T09:34:10;2.13;;;1.90;;
19675;SDS011;39539;52.202;9.876;2022-07-09T09:36:41;2.70;;;1.75;;
19675;SDS011;39539;52.202;9.876;2022-07-09T09:39:18;1.80;;;1.70;;
19675;SDS011;39539;52.202;9.876;2022-07-09T09:41:47;1.88;;;1.77;;
19675;SDS011;39539;52.202;9.876;2022-07-09T09:44:16;3.75;;;1.90;;
19675;SDS011;39539;52.202;9.876;2022-07-09T09:46:48;2.83;;;2.00;;
19675;SDS011;39539;52.202;9.876;2022-07-09T09:49:14;2.22;;;1.90;;
19675;SDS011;39539;52.202;9.876;2022-07-09T09:51:47;2.92;;;2.20;;
19675;SDS011;39539;52.202;9.876;2022-07-09T09:54:17;2.10;;;1.90;;
19675;SDS011;39539;52.202;9.876;2022-07-09T09:56:43;1.90;;;1.80;;
19675;SDS011;39539;52.202;9.876;2022-07-09T09:59:10;3.17;;;1.90;;
19675;SDS011;39539;52.202;9.876;2022-07-09T10:01:37;1.80;;;1.70;;
19675;SDS011;39539;52.202;9.876;2022-07-09T10:04:04;2.20;;;2.10;;
19675;SDS011;39539;52.202;9.876;2022-07-09T10:06:30;2.13;;;1.70;;
19675;SDS011;39539;52.202;9.876;2022-07-09T10:08:55;1.55;;;1.45;;
19675;SDS011;39539;52.202;9.876;2022-07-09T10:11:22;1.42;;;1.33;;
19675;SDS011;39539;52.202;9.876;2022-07-09T10:13:51;1.42;;;1.30;;
19675;SDS011;39539;52.202;9.876;2022-07-09T10:16:33;1.30;;;1.20;;
19675;SDS011;39539;52.202;9.876;2022-07-09T10:19:05;1.30;;;1.20;;
19675;SDS011;39539;52.202;9.876;2022-07-09T10:21:35;2.30;;;1.25;;
19675;SDS011;39539;52.202;9.876;2022-07-09T10:24:05;2.00;;;1.20;;
19675;SDS011;39539;52.202;9.876;2022-07-09T10:26:43;1.55;;;1.30;;
19675;SDS011;39539;52.202;9.876;2022-07-09T10:29:25;1.90;;;1.23;;
19675;SDS011;39539;52.202;9.876;2022-07-09T10:31:52;1.40;;;1.30;;
19675;SDS011;39539;52.202;9.876;2022-07-09T10:34:35;1.60;;;1.05;;
19675;SDS011;39539;52.202;9.876;2022-07-09T10:37:06;1.98;;;1.10;;
19675;SDS011;39539;52.202;9.876;2022-07-09T10:39:33;0.90;;;0.90;;
19675;SDS011;39539;52.202;9.876;2022-07-09T10:42:03;1.30;;;1.20;;
19675;SDS011;39539;52.202;9.876;2022-07-09T10:44:45;1.52;;;0.88;;
19675;SDS011;39539;52.202;9.876;2022-07-09T10:47:12;0.80;;;0.80;;
19675;SDS011;39539;52.202;9.876;2022-07-09T10:49:38;1.35;;;0.80;;
19675;SDS011;39539;52.202;9.876;2022-07-09T10:52:07;2.13;;;0.90;;
19675;SDS011;39539;52.202;9.876;2022-07-09T10:54:44;0.80;;;0.70;;
19675;SDS011;39539;52.202;9.876;2022-07-09T10:57:12;0.90;;;0.80;;
19675;SDS011;39539;52.202;9.876;2022-07-09T10:59:38;1.38;;;0.77;;
19675;SDS011;39539;52.202;9.876;2022-07-09T11:02:16;1.83;;;1.10;;
19675;SDS011;39539;52.202;9.876;2022-07-09T11:05:00;1.42;;;0.75;;
19675;SDS011;39539;52.202;9.876;2022-07-09T11:07:25;1.33;;;0.70;;
19675;SDS011;39539;52.202;9.876;2022-07-09T11:09:54;0.70;;;0.70;;
19675;SDS011;39539;52.202;9.876;2022-07-09T11:12:29;1.20;;;1.00;;
19675;SDS011;39539;52.202;9.876;2022-07-09T11:14:55;0.90;;;0.90;;
19675;SDS011;39539;52.202;9.876;2022-07-09T11:17:22;1.73;;;0.90;;
19675;SDS011;39539;52.202;9.876;2022-07-09T11:19:50;1.23;;;0.90;;
19675;SDS011;39539;52.202;9.876;2022-07-09T11:22:28;1.08;;;0.98;;
19675;SDS011;39539;52.202;9.876;2022-07-09T11:24:53;1.10;;;1.00;;
19675;SDS011;39539;52.202;9.876;2022-07-09T11:27:19;1.00;;;0.90;;
19675;SDS011;39539;52.202;9.876;2022-07-09T11:29:53;1.55;;;0.75;;
19675;SDS011;39539;52.202;9.876;2022-07-09T11:32:19;0.88;;;0.88;;
19675;SDS011;39539;52.202;9.876;2022-07-09T11:34:52;1.63;;;1.00;;
19675;SDS011;39539;52.202;9.876;2022-07-09T11:37:24;0.75;;;0.70;;
19675;SDS011;39539;52.202;9.876;2022-07-09T11:50:11;1.05;;;0.80;;
19675;SDS011;39539;52.202;9.876;2022-07-09T11:52:43;1.00;;;0.90;;
19675;SDS011;39539;52.202;9.876;2022-07-09T11:55:10;0.60;;;0.60;;
19675;SDS011;39539;52.202;9.876;2022-07-09T11:57:39;0.82;;;0.70;;
19675;SDS011;39539;52.202;9.876;2022-07-09T12:00:07;2.15;;;0.80;;
19675;SDS011;39539;52.202;9.876;2022-07-09T12:02:37;0.98;;;0.60;;
19675;SDS011;39539;52.202;9.876;2022-07-09T12:05:05;0.77;;;0.73;;
19675;SDS011;39539;52.202;9.876;2022-07-09T12:07:32;1.27;;;0.80;;
19675;SDS011;39539;52.202;9.876;2022-07-09T12:10:10;1.48;;;0.90;;
19675;SDS011;39539;52.202;9.876;2022-07-09T12:12:36;0.70;;;0.70;;
19675;SDS011;39539;52.202;9.876;2022-07-09T12:15:06;0.85;;;0.75;;
19675;SDS011;39539;52.202;9.876;2022-07-09T12:17:33;0.80;;;0.80;;
19675;SDS011;39539;52.202;9.876;2022-07-09T12:19:59;3.15;;;0.77;;
19675;SDS011;39539;52.202;9.876;2022-07-09T12:25:55;3.25;;;0.90;;
19675;SDS011;39539;52.202;9.876;2022-07-09T12:28:24;0.80;;;0.70;;
19675;SDS011;39539;52.202;9.876;2022-07-09T12:30:51;0.90;;;0.80;;
19675;SDS011;39539;52.202;9.876;2022-07-09T12:33:17;1.10;;;0.80;;
19675;SDS011;39539;52.202;9.876;2022-07-09T12:35:44;1.17;;;0.75;;
19675;SDS011;39539;52.202;9.876;2022-07-09T12:38:10;1.40;;;0.80;;
19675;SDS011;39539;52.202;9.876;2022-07-09T12:40:35;0.90;;;0.90;;
19675;SDS011;39539;52.202;9.876;2022-07-09T12:43:01;1.38;;;0.70;;
19675;SDS011;39539;52.202;9.876;2022-07-09T12:45:26;0.60;;;0.60;;
19675;SDS011;39539;52.202;9.876;2022-07-09T12:47:51;1.48;;;0.73;;
19675;SDS011;39539;52.202;9.876;2022-07-09T12:50:17;0.70;;;0.70;;
19675;SDS011;39539;52.202;9.876;2022-07-09T12:52:42;1.95;;;0.73;;
19675;SDS011;39539;52.202;9.876;2022-07-09T12:55:09;0.70;;;0.60;;
19675;SDS011;39539;52.202;9.876;2022-07-09T12:57:35;1.40;;;0.70;;
19675;SDS011;39539;52.202;9.876;2022-07-09T13:00:01;2.75;;;0.85;;
19675;SDS011;39539;52.202;9.876;2022-07-09T13:02:27;0.80;;;0.80;;
19675;SDS011;39539;52.202;9.876;2022-07-09T13:04:53;0.68;;;0.68;;
19675;SDS011;39539;52.202;9.876;2022-07-09T13:07:18;0.87;;;0.67;;
19675;SDS011;39539;52.202;9.876;2022-07-09T13:09:45;1.65;;;0.80;;
19675;SDS011;39539;52.202;9.876;2022-07-09T13:12:11;4.38;;;0.63;;
19675;SDS011;39539;52.202;9.876;2022-07-09T13:14:36;1.45;;;0.80;;
19675;SDS011;39539;52.202;9.876;2022-07-09T13:17:02;0.77;;;0.77;;
19675;SDS011;39539;52.202;9.876;2022-07-09T13:19:27;2.35;;;1.02;;
19675;SDS011;39539;52.202;9.876;2022-07-09T13:21:52;2.53;;;1.10;;
19675;SDS011;39539;52.202;9.876;2022-07-09T13:24:18;4.78;;;1.20;;
19675;SDS011;39539;52.202;9.876;2022-07-09T13:26:43;2.05;;;1.42;;
19675;SDS011;39539;52.202;9.876;2022-07-09T13:29:08;1.75;;;1.63;;
19675;SDS011;39539;52.202;9.876;2022-07-09T13:31:34;2.53;;;2.33;;
19675;SDS011;39539;52.202;9.876;2022-07-09T13:33:59;3.63;;;2.70;;
19675;SDS011;39539;52.202;9.876;2022-07-09T13:36:25;2.58;;;2.38;;
19675;SDS011;39539;52.202;9.876;2022-07-09T13:38:50;3.70;;;2.85;;
19675;SDS011;39539;52.202;9.876;2022-07-09T13:41:16;2.70;;;2.50;;
19675;SDS011;39539;52.202;9.876;2022-07-09T13:43:42;2.58;;;2.38;;
19675;SDS011;39539;52.202;9.876;2022-07-09T13:46:07;2.65;;;2.45;;
19675;SDS011;39539;52.202;9.876;2022-07-09T13:48:33;2.95;;;2.10;;
19675;SDS011;39539;52.202;9.876;2022-07-09T13:50:58;2.15;;;1.95;;
19675;SDS011;39539;52.202;9.876;2022-07-09T13:53:25;3.60;;;2.38;;
19675;SDS011;39539;52.202;9.876;2022-07-09T13:55:53;2.00;;;1.80;;
19675;SDS011;39539;52.202;9.876;2022-07-09T13:58:18;2.00;;;1.83;;
19675;SDS011;39539;52.202;9.876;2022-07-09T14:00:44;1.73;;;1.63;;
19675;SDS011;39539;52.202;9.876;2022-07-09T14:03:09;2.00;;;1.80;;
19675;SDS011;39539;52.202;9.876;2022-07-09T14:05:36;1.70;;;1.60;;
19675;SDS011;39539;52.202;9.876;2022-07-09T14:08:03;1.75;;;1.63;;
19675;SDS011;39539;52.202;9.876;2022-07-09T14:10:30;2.13;;;1.92;;
19675;SDS011;39539;52.202;9.876;2022-07-09T14:12:55;1.85;;;1.52;;
19675;SDS011;39539;52.202;9.876;2022-07-09T14:15:21;2.35;;;1.70;;
19675;SDS011;39539;52.202;9.876;2022-07-09T14:17:49;1.92;;;1.73;;
19675;SDS011;39539;52.202;9.876;2022-07-09T14:20:14;1.95;;;1.60;;
19675;SDS011;39539;52.202;9.876;2022-07-09T14:22:40;1.83;;;1.48;;
19675;SDS011;39539;52.202;9.876;2022-07-09T14:25:06;1.92;;;1.70;;
19675;SDS011;39539;52.202;9.876;2022-07-09T14:27:32;2.47;;;1.75;;
19675;SDS011;39539;52.202;9.876;2022-07-09T14:29:57;1.60;;;1.50;;
19675;SDS011;39539;52.202;9.876;2022-07-09T14:32:23;1.45;;;1.35;;
19675;SDS011;39539;52.202;9.876;2022-07-09T14:34:49;1.50;;;1.40;;
19675;SDS011;39539;52.202;9.876;2022-07-09T14:37:14;1.40;;;1.30;;
19675;SDS011;39539;52.202;9.876;2022-07-09T14:39:39;1.50;;;1.40;;
19675;SDS011;39539;52.202;9.876;2022-07-09T14:42:05;1.90;;;1.27;;
19675;SDS011;39539;52.202;9.876;2022-07-09T14:44:30;1.73;;;0.93;;
19675;SDS011;39539;52.202;9.876;2022-07-09T14:46:56;1.08;;;0.90;;
19675;SDS011;39539;52.202;9.876;2022-07-09T14:49:24;1.83;;;1.15;;
19675;SDS011;39539;52.202;9.876;2022-07-09T14:51:50;1.88;;;1.08;;
19675;SDS011;39539;52.202;9.876;2022-07-09T14:54:15;1.27;;;0.93;;
19675;SDS011;39539;52.202;9.876;2022-07-09T14:56:41;1.63;;;1.10;;
19675;SDS011;39539;52.202;9.876;2022-07-09T14:59:08;1.30;;;1.20;;
19675;SDS011;39539;52.202;9.876;2022-07-09T15:01:33;1.42;;;1.00;;
19675;SDS011;39539;52.202;9.876;2022-07-09T15:03:59;1.15;;;1.05;;